createdAt,value
2018-09-11T00:05:52.292Z,2.70
2018-09-11T00:26:34.633Z,2.93
2018-09-11T00:47:13.901Z,2.80
2018-09-11T01:07:55.017Z,3.03
2018-09-11T01:28:35.507Z,2.73
2018-09-11T01:49:18.762Z,4.07
2018-09-11T02:10:03.870Z,2.77
2018-09-11T02:30:44.612Z,3.50
2018-09-11T02:51:24.562Z,3.10
2018-09-11T03:12:05.964Z,3.30
2018-09-11T03:32:45.232Z,2.63
2018-09-11T03:53:24.497Z,2.80
2018-09-11T04:14:04.689Z,4.10
2018-09-11T04:34:43.031Z,3.03
2018-09-11T04:55:27.515Z,3.00
2018-09-11T05:16:11.699Z,3.30
2018-09-11T05:36:52.810Z,3.07
2018-09-11T05:57:36.373Z,4.23
2018-09-11T06:18:21.170Z,5.53
2018-09-11T06:38:58.899Z,6.47
2018-09-11T06:59:40.010Z,5.30
2018-09-11T07:20:22.969Z,4.70
2018-09-11T07:40:58.544Z,3.70
2018-09-11T08:01:43.236Z,3.23
2018-09-11T08:22:26.291Z,3.20
2018-09-11T08:43:04.909Z,2.87
2018-09-11T09:03:44.824Z,2.70
2018-09-11T09:24:25.011Z,2.40
2018-09-11T09:45:03.353Z,1.80
2018-09-11T10:05:42.620Z,2.30
2018-09-11T10:26:21.884Z,2.37
2018-09-11T11:05:07.736Z,2.40
2018-09-11T11:25:49.481Z,2.93
2018-09-11T11:46:35.824Z,3.10
2018-09-11T12:07:12.258Z,2.30
2018-09-11T12:27:54.028Z,3.30
2018-09-11T12:48:36.472Z,2.50
2018-09-11T13:09:15.685Z,2.50
2018-09-11T13:29:59.245Z,2.40
2018-09-11T13:50:40.609Z,2.40
2018-09-11T14:11:19.561Z,2.63
2018-09-11T14:32:00.980Z,2.60
2018-09-11T14:52:45.227Z,2.30
2018-09-11T15:13:24.427Z,2.53
2018-09-11T15:34:12.250Z,2.53
2018-09-11T15:54:54.944Z,2.63
2018-09-11T16:15:37.745Z,2.87
2018-09-11T16:36:22.691Z,2.40
2018-09-11T16:57:08.105Z,2.50
2018-09-11T17:17:48.293Z,3.17
2018-09-11T17:38:27.557Z,2.50
2018-09-11T17:59:07.747Z,3.70
2018-09-11T18:19:48.238Z,3.57
2018-09-11T18:40:31.496Z,2.70
2018-09-11T19:01:08.618Z,3.50
2018-09-11T19:21:49.110Z,4.57
2018-09-11T19:42:27.197Z,3.43
2018-09-11T20:03:08.565Z,3.80
2018-09-11T20:23:46.601Z,3.43
2018-09-11T20:44:27.097Z,3.87
2018-09-11T21:05:09.434Z,3.30
2018-09-11T21:25:59.757Z,3.10
2018-09-11T21:46:39.027Z,3.37
2018-09-11T22:07:22.602Z,4.47
2018-09-11T22:28:11.689Z,3.57
2018-09-11T22:48:50.959Z,3.50
2018-09-11T23:09:33.296Z,3.50
2018-09-11T23:30:15.329Z,3.63
2018-09-11T23:50:54.902Z,4.33
